sensor_id;sensor_type;location;lat;lon;timestamp;temperature;humidity
20845;DHT22;10583;49.084;8.646;2023-02-25T00:00:26;6.70;99.90
20845;DHT22;10583;49.084;8.646;2023-02-25T00:02:55;6.70;99.90
20845;DHT22;10583;49.084;8.646;2023-02-25T00:05:23;6.60;99.90
20845;DHT22;10583;49.084;8.646;2023-02-25T00:07:50;6.60;99.90
20845;DHT22;10583;49.084;8.646;2023-02-25T00:10:18;6.50;99.90
20845;DHT22;10583;49.084;8.646;2023-02-25T00:12:45;6.50;99.90
20845;DHT22;10583;49.084;8.646;2023-02-25T00:15:11;6.50;99.90
20845;DHT22;10583;49.084;8.646;2023-02-25T00:17:38;6.50;99.90
20845;DHT22;10583;49.084;8.646;2023-02-25T00:20:06;6.50;99.90
20845;DHT22;10583;49.084;8.646;2023-02-25T00:22:34;6.40;99.90
20845;DHT22;10583;49.084;8.646;2023-02-25T00:25:01;6.40;99.90
20845;DHT22;10583;49.084;8.646;2023-02-25T00:27:29;6.30;99.90
20845;DHT22;10583;49.084;8.646;2023-02-25T00:29:56;6.20;99.90
20845;DHT22;10583;49.084;8.646;2023-02-25T00:32:23;6.20;99.90
20845;DHT22;10583;49.084;8.646;2023-02-25T00:34:50;6.20;99.90
20845;DHT22;10583;49.084;8.646;2023-02-25T00:37:17;6.20;99.90
20845;DHT22;10583;49.084;8.646;2023-02-25T00:39:44;6.20;99.90
20845;DHT22;10583;49.084;8.646;2023-02-25T00:42:12;6.20;99.90
20845;DHT22;10583;49.084;8.646;2023-02-25T00:44:42;6.20;99.90
20845;DHT22;10583;49.084;8.646;2023-02-25T00:47:09;6.10;99.90
20845;DHT22;10583;49.084;8.646;2023-02-25T00:49:36;6.20;99.90
20845;DHT22;10583;49.084;8.646;2023-02-25T00:52:03;6.10;99.90
20845;DHT22;10583;49.084;8.646;2023-02-25T00:54:29;6.20;99.90
20845;DHT22;10583;49.084;8.646;2023-02-25T00:56:56;6.10;99.90
20845;DHT22;10583;49.084;8.646;2023-02-25T00:59:23;6.00;99.90
20845;DHT22;10583;49.084;8.646;2023-02-25T01:01:51;6.00;99.90
20845;DHT22;10583;49.084;8.646;2023-02-25T01:04:18;6.10;99.90
20845;DHT22;10583;49.084;8.646;2023-02-25T01:06:45;6.10;99.90
20845;DHT22;10583;49.084;8.646;2023-02-25T01:09:11;6.10;99.90
20845;DHT22;10583;49.084;8.646;2023-02-25T01:11:41;6.10;99.90
20845;DHT22;10583;49.084;8.646;2023-02-25T01:14:12;6.00;99.90
20845;DHT22;10583;49.084;8.646;2023-02-25T01:16:39;6.10;99.90
20845;DHT22;10583;49.084;8.646;2023-02-25T01:19:10;6.00;99.90
20845;DHT22;10583;49.084;8.646;2023-02-25T01:21:40;6.00;99.90
20845;DHT22;10583;49.084;8.646;2023-02-25T01:24:10;6.00;99.90
20845;DHT22;10583;49.084;8.646;2023-02-25T01:26:39;6.00;99.90
20845;DHT22;10583;49.084;8.646;2023-02-25T01:29:07;5.90;99.90
20845;DHT22;10583;49.084;8.646;2023-02-25T01:31:34;5.90;99.90
20845;DHT22;10583;49.084;8.646;2023-02-25T01:34:04;5.80;99.90
20845;DHT22;10583;49.084;8.646;2023-02-25T01:36:32;5.90;99.90
20845;DHT22;10583;49.084;8.646;2023-02-25T01:39:01;5.80;99.90
20845;DHT22;10583;49.084;8.646;2023-02-25T01:41:29;5.80;99.90
20845;DHT22;10583;49.084;8.646;2023-02-25T01:44:08;5.70;99.90
20845;DHT22;10583;49.084;8.646;2023-02-25T01:46:36;5.70;99.90
20845;DHT22;10583;49.084;8.646;2023-02-25T01:49:06;5.70;99.90
20845;DHT22;10583;49.084;8.646;2023-02-25T01:51:37;5.70;99.90
20845;DHT22;10583;49.084;8.646;2023-02-25T01:54:05;5.80;99.90
20845;DHT22;10583;49.084;8.646;2023-02-25T01:56:37;5.80;99.90
20845;DHT22;10583;49.084;8.646;2023-02-25T01:59:04;5.80;99.90
20845;DHT22;10583;49.084;8.646;2023-02-25T02:01:32;5.80;99.90
20845;DHT22;10583;49.084;8.646;2023-02-25T02:04:00;5.80;99.90
20845;DHT22;10583;49.084;8.646;2023-02-25T02:06:32;5.80;99.90
20845;DHT22;10583;49.084;8.646;2023-02-25T02:09:01;5.70;99.90
20845;DHT22;10583;49.084;8.646;2023-02-25T02:11:28;5.70;99.90
20845;DHT22;10583;49.084;8.646;2023-02-25T02:13:56;5.60;99.90
20845;DHT22;10583;49.084;8.646;2023-02-25T02:16:39;5.60;99.90
20845;DHT22;10583;49.084;8.646;2023-02-25T02:19:20;5.50;99.90
20845;DHT22;10583;49.084;8.646;2023-02-25T02:21:58;5.50;99.90
20845;DHT22;10583;49.084;8.646;2023-02-25T02:24:59;5.40;99.90
20845;DHT22;10583;49.084;8.646;2023-02-25T02:27:37;5.30;99.90
20845;DHT22;10583;49.084;8.646;2023-02-25T02:30:26;5.30;99.90
20845;DHT22;10583;49.084;8.646;2023-02-25T02:33:02;5.20;99.90
20845;DHT22;10583;49.084;8.646;2023-02-25T02:35:33;5.20;99.90
20845;DHT22;10583;49.084;8.646;2023-02-25T02:38:09;5.10;99.90
20845;DHT22;10583;49.084;8.646;2023-02-25T02:40:42;5.10;99.90
20845;DHT22;10583;49.084;8.646;2023-02-25T02:43:22;5.10;99.90
20845;DHT22;10583;49.084;8.646;2023-02-25T02:45:58;5.10;99.90
20845;DHT22;10583;49.084;8.646;2023-02-25T02:48:33;5.00;99.90
20845;DHT22;10583;49.084;8.646;2023-02-25T02:51:06;4.90;99.90
20845;DHT22;10583;49.084;8.646;2023-02-25T02:53:39;4.90;99.90
20845;DHT22;10583;49.084;8.646;2023-02-25T02:56:10;4.90;99.90
20845;DHT22;10583;49.084;8.646;2023-02-25T02:58:40;4.80;99.90
20845;DHT22;10583;49.084;8.646;2023-02-25T03:01:13;4.80;99.90
20845;DHT22;10583;49.084;8.646;2023-02-25T03:03:44;4.70;99.90
20845;DHT22;10583;49.084;8.646;2023-02-25T03:06:15;4.70;99.90
20845;DHT22;10583;49.084;8.646;2023-02-25T03:08:44;4.70;99.90
20845;DHT22;10583;49.084;8.646;2023-02-25T03:11:14;4.60;99.90
20845;DHT22;10583;49.084;8.646;2023-02-25T03:13:41;4.50;99.90
20845;DHT22;10583;49.084;8.646;2023-02-25T03:16:13;4.50;99.90
20845;DHT22;10583;49.084;8.646;2023-02-25T03:18:46;4.50;99.90
20845;DHT22;10583;49.084;8.646;2023-02-25T03:21:18;4.50;99.90
20845;DHT22;10583;49.084;8.646;2023-02-25T03:23:47;4.50;99.90
20845;DHT22;10583;49.084;8.646;2023-02-25T03:26:22;4.50;99.90
20845;DHT22;10583;49.084;8.646;2023-02-25T03:28:52;4.50;99.90
20845;DHT22;10583;49.084;8.646;2023-02-25T03:31:23;4.50;99.90
20845;DHT22;10583;49.084;8.646;2023-02-25T03:33:54;4.50;99.90
20845;DHT22;10583;49.084;8.646;2023-02-25T03:36:25;4.40;99.90
20845;DHT22;10583;49.084;8.646;2023-02-25T03:38:55;4.40;99.90
20845;DHT22;10583;49.084;8.646;2023-02-25T03:41:26;4.40;99.90
20845;DHT22;10583;49.084;8.646;2023-02-25T03:43:57;4.40;99.90
20845;DHT22;10583;49.084;8.646;2023-02-25T03:46:24;4.40;99.90
20845;DHT22;10583;49.084;8.646;2023-02-25T03:48:54;4.40;99.90
20845;DHT22;10583;49.084;8.646;2023-02-25T03:51:27;4.40;99.90
20845;DHT22;10583;49.084;8.646;2023-02-25T03:53:54;4.40;99.90
20845;DHT22;10583;49.084;8.646;2023-02-25T03:56:21;4.40;99.90
20845;DHT22;10583;49.084;8.646;2023-02-25T03:58:48;4.40;99.90
20845;DHT22;10583;49.084;8.646;2023-02-25T04:01:18;4.50;99.90
20845;DHT22;10583;49.084;8.646;2023-02-25T04:03:49;4.50;99.90
20845;DHT22;10583;49.084;8.646;2023-02-25T04:06:20;4.50;99.90
20845;DHT22;10583;49.084;8.646;2023-02-25T04:08:47;4.50;99.90
20845;DHT22;10583;49.084;8.646;2023-02-25T04:11:13;4.50;99.90
20845;DHT22;10583;49.084;8.646;2023-02-25T04:13:40;4.50;99.90
20845;DHT22;10583;49.084;8.646;2023-02-25T04:16:07;4.60;99.90
20845;DHT22;10583;49.084;8.646;2023-02-25T04:18:34;4.60;99.90
20845;DHT22;10583;49.084;8.646;2023-02-25T04:21:00;4.60;99.90
20845;DHT22;10583;49.084;8.646;2023-02-25T04:23:29;4.60;99.90
20845;DHT22;10583;49.084;8.646;2023-02-25T04:25:55;4.60;99.90
20845;DHT22;10583;49.084;8.646;2023-02-25T04:28:22;4.60;99.90
20845;DHT22;10583;49.084;8.646;2023-02-25T04:30:49;4.70;99.90
20845;DHT22;10583;49.084;8.646;2023-02-25T04:33:15;4.70;99.90
20845;DHT22;10583;49.084;8.646;2023-02-25T04:35:42;4.70;99.90
20845;DHT22;10583;49.084;8.646;2023-02-25T04:38:09;4.70;99.90
20845;DHT22;10583;49.084;8.646;2023-02-25T04:40:37;4.70;99.90
20845;DHT22;10583;49.084;8.646;2023-02-25T04:43:04;4.80;99.90
20845;DHT22;10583;49.084;8.646;2023-02-25T04:45:31;4.80;99.90
20845;DHT22;10583;49.084;8.646;2023-02-25T04:47:57;4.80;99.90
20845;DHT22;10583;49.084;8.646;2023-02-25T04:50:24;4.80;99.90
20845;DHT22;10583;49.084;8.646;2023-02-25T04:52:51;4.80;99.90
20845;DHT22;10583;49.084;8.646;2023-02-25T04:55:18;4.80;99.90
20845;DHT22;10583;49.084;8.646;2023-02-25T04:57:46;4.80;99.90
20845;DHT22;10583;49.084;8.646;2023-02-25T05:00:15;4.80;99.90
20845;DHT22;10583;49.084;8.646;2023-02-25T05:02:44;4.80;99.90
20845;DHT22;10583;49.084;8.646;2023-02-25T05:05:11;4.80;99.90
20845;DHT22;10583;49.084;8.646;2023-02-25T05:07:38;4.80;99.90
20845;DHT22;10583;49.084;8.646;2023-02-25T05:10:06;4.80;99.90
20845;DHT22;10583;49.084;8.646;2023-02-25T05:12:33;4.80;99.90
20845;DHT22;10583;49.084;8.646;2023-02-25T05:15:01;4.80;99.90
20845;DHT22;10583;49.084;8.646;2023-02-25T05:17:29;4.80;99.90
20845;DHT22;10583;49.084;8.646;2023-02-25T05:19:56;4.80;99.90
20845;DHT22;10583;49.084;8.646;2023-02-25T05:22:23;4.80;99.90
20845;DHT22;10583;49.084;8.646;2023-02-25T05:24:50;4.90;99.90
20845;DHT22;10583;49.084;8.646;2023-02-25T05:27:17;4.80;99.90
20845;DHT22;10583;49.084;8.646;2023-02-25T05:29:44;4.80;99.90
20845;DHT22;10583;49.084;8.646;2023-02-25T05:32:12;4.80;99.90
20845;DHT22;10583;49.084;8.646;2023-02-25T05:34:38;4.80;99.90
20845;DHT22;10583;49.084;8.646;2023-02-25T05:37:05;4.80;99.90
20845;DHT22;10583;49.084;8.646;2023-02-25T05:39:32;4.80;99.90
20845;DHT22;10583;49.084;8.646;2023-02-25T05:41:59;4.70;99.90
20845;DHT22;10583;49.084;8.646;2023-02-25T05:44:26;4.70;99.90
20845;DHT22;10583;49.084;8.646;2023-02-25T05:46:52;4.70;99.90
20845;DHT22;10583;49.084;8.646;2023-02-25T05:49:20;4.70;99.90
20845;DHT22;10583;49.084;8.646;2023-02-25T05:51:47;4.70;99.90
20845;DHT22;10583;49.084;8.646;2023-02-25T05:54:14;4.70;99.90
20845;DHT22;10583;49.084;8.646;2023-02-25T05:56:41;4.70;99.90
20845;DHT22;10583;49.084;8.646;2023-02-25T05:59:09;4.70;99.90
20845;DHT22;10583;49.084;8.646;2023-02-25T06:01:36;4.70;99.90
20845;DHT22;10583;49.084;8.646;2023-02-25T06:04:03;4.70;99.90
20845;DHT22;10583;49.084;8.646;2023-02-25T06:06:31;4.70;99.90
20845;DHT22;10583;49.084;8.646;2023-02-25T06:08:58;4.80;99.90
20845;DHT22;10583;49.084;8.646;2023-02-25T06:11:28;4.80;99.90
20845;DHT22;10583;49.084;8.646;2023-02-25T06:13:56;4.70;99.90
20845;DHT22;10583;49.084;8.646;2023-02-25T06:16:24;4.80;99.90
20845;DHT22;10583;49.084;8.646;2023-02-25T06:18:56;4.80;99.90
20845;DHT22;10583;49.084;8.646;2023-02-25T06:21:23;4.80;99.90
20845;DHT22;10583;49.084;8.646;2023-02-25T06:23:51;4.80;99.90
20845;DHT22;10583;49.084;8.646;2023-02-25T06:26:18;4.80;99.90
20845;DHT22;10583;49.084;8.646;2023-02-25T06:28:45;4.80;99.90
20845;DHT22;10583;49.084;8.646;2023-02-25T06:31:14;4.80;99.90
20845;DHT22;10583;49.084;8.646;2023-02-25T06:33:41;4.80;99.90
20845;DHT22;10583;49.084;8.646;2023-02-25T06:36:08;4.80;99.90
20845;DHT22;10583;49.084;8.646;2023-02-25T06:38:36;4.80;99.90
20845;DHT22;10583;49.084;8.646;2023-02-25T06:41:06;4.80;99.90
20845;DHT22;10583;49.084;8.646;2023-02-25T06:43:34;4.80;99.90
20845;DHT22;10583;49.084;8.646;2023-02-25T06:46:03;4.80;99.90
20845;DHT22;10583;49.084;8.646;2023-02-25T06:48:30;4.80;99.90
20845;DHT22;10583;49.084;8.646;2023-02-25T06:50:57;4.80;99.90
20845;DHT22;10583;49.084;8.646;2023-02-25T06:53:24;4.80;99.90
20845;DHT22;10583;49.084;8.646;2023-02-25T06:55:50;4.80;99.90
20845;DHT22;10583;49.084;8.646;2023-02-25T06:58:18;4.80;99.90
20845;DHT22;10583;49.084;8.646;2023-02-25T07:00:45;4.80;99.90
20845;DHT22;10583;49.084;8.646;2023-02-25T07:03:12;4.80;99.90
20845;DHT22;10583;49.084;8.646;2023-02-25T07:05:39;4.80;99.90
20845;DHT22;10583;49.084;8.646;2023-02-25T07:08:05;4.80;99.90
20845;DHT22;10583;49.084;8.646;2023-02-25T07:10:33;4.90;99.90
20845;DHT22;10583;49.084;8.646;2023-02-25T07:13:00;4.90;99.90
20845;DHT22;10583;49.084;8.646;2023-02-25T07:15:28;4.90;99.90
20845;DHT22;10583;49.084;8.646;2023-02-25T07:17:54;4.90;99.90
20845;DHT22;10583;49.084;8.646;2023-02-25T07:20:21;4.90;99.90
20845;DHT22;10583;49.084;8.646;2023-02-25T07:22:48;5.00;99.90
20845;DHT22;10583;49.084;8.646;2023-02-25T07:25:15;5.00;99.90
20845;DHT22;10583;49.084;8.646;2023-02-25T07:27:42;5.00;99.90
20845;DHT22;10583;49.084;8.646;2023-02-25T07:30:10;5.00;99.90
20845;DHT22;10583;49.084;8.646;2023-02-25T07:32:39;5.00;99.90
20845;DHT22;10583;49.084;8.646;2023-02-25T07:35:07;5.00;99.90
20845;DHT22;10583;49.084;8.646;2023-02-25T07:37:34;5.00;99.90
20845;DHT22;10583;49.084;8.646;2023-02-25T07:40:02;5.00;99.90
20845;DHT22;10583;49.084;8.646;2023-02-25T07:42:29;5.10;99.90
20845;DHT22;10583;49.084;8.646;2023-02-25T07:44:55;5.10;99.90
20845;DHT22;10583;49.084;8.646;2023-02-25T07:47:22;5.20;99.90
20845;DHT22;10583;49.084;8.646;2023-02-25T07:49:50;5.20;99.90
20845;DHT22;10583;49.084;8.646;2023-02-25T07:52:17;5.20;99.90
20845;DHT22;10583;49.084;8.646;2023-02-25T07:54:43;5.30;99.90
20845;DHT22;10583;49.084;8.646;2023-02-25T07:57:10;5.40;99.90
20845;DHT22;10583;49.084;8.646;2023-02-25T07:59:37;5.50;99.90
20845;DHT22;10583;49.084;8.646;2023-02-25T08:02:04;5.50;99.90
20845;DHT22;10583;49.084;8.646;2023-02-25T08:04:34;5.50;99.90
20845;DHT22;10583;49.084;8.646;2023-02-25T08:07:02;5.50;99.90
20845;DHT22;10583;49.084;8.646;2023-02-25T08:09:29;5.50;99.90
20845;DHT22;10583;49.084;8.646;2023-02-25T08:11:56;5.60;99.90
20845;DHT22;10583;49.084;8.646;2023-02-25T08:14:22;5.60;99.90
20845;DHT22;10583;49.084;8.646;2023-02-25T08:16:49;5.60;99.90
20845;DHT22;10583;49.084;8.646;2023-02-25T08:19:17;5.60;99.90
20845;DHT22;10583;49.084;8.646;2023-02-25T08:21:44;5.70;99.90
20845;DHT22;10583;49.084;8.646;2023-02-25T08:24:12;5.70;99.90
20845;DHT22;10583;49.084;8.646;2023-02-25T08:26:39;5.70;99.90
20845;DHT22;10583;49.084;8.646;2023-02-25T08:29:06;5.70;99.90
20845;DHT22;10583;49.084;8.646;2023-02-25T08:31:33;5.80;99.90
20845;DHT22;10583;49.084;8.646;2023-02-25T08:34:00;5.80;99.90
20845;DHT22;10583;49.084;8.646;2023-02-25T08:36:28;5.80;99.90
20845;DHT22;10583;49.084;8.646;2023-02-25T08:38:56;5.80;99.90
20845;DHT22;10583;49.084;8.646;2023-02-25T08:41:26;5.90;99.90
20845;DHT22;10583;49.084;8.646;2023-02-25T08:43:55;6.00;99.90
20845;DHT22;10583;49.084;8.646;2023-02-25T08:46:24;6.10;99.90
20845;DHT22;10583;49.084;8.646;2023-02-25T08:48:52;6.00;99.90
20845;DHT22;10583;49.084;8.646;2023-02-25T08:51:20;6.00;99.90
20845;DHT22;10583;49.084;8.646;2023-02-25T08:53:47;6.10;99.90
20845;DHT22;10583;49.084;8.646;2023-02-25T08:56:15;6.20;99.90
20845;DHT22;10583;49.084;8.646;2023-02-25T08:58:43;6.10;99.90
20845;DHT22;10583;49.084;8.646;2023-02-25T09:01:12;6.20;99.90
20845;DHT22;10583;49.084;8.646;2023-02-25T09:03:39;6.10;99.90
20845;DHT22;10583;49.084;8.646;2023-02-25T09:06:18;6.20;99.90
20845;DHT22;10583;49.084;8.646;2023-02-25T09:08:45;6.20;99.90
20845;DHT22;10583;49.084;8.646;2023-02-25T09:11:12;6.20;99.90
20845;DHT22;10583;49.084;8.646;2023-02-25T09:13:39;6.30;99.90
20845;DHT22;10583;49.084;8.646;2023-02-25T09:16:08;6.40;99.90
20845;DHT22;10583;49.084;8.646;2023-02-25T09:18:34;6.30;99.90
20845;DHT22;10583;49.084;8.646;2023-02-25T09:21:01;6.40;99.90
20845;DHT22;10583;49.084;8.646;2023-02-25T09:23:28;6.50;99.90
20845;DHT22;10583;49.084;8.646;2023-02-25T09:25:55;6.40;99.90
20845;DHT22;10583;49.084;8.646;2023-02-25T09:28:22;6.30;99.90
20845;DHT22;10583;49.084;8.646;2023-02-25T09:30:48;6.30;99.90
20845;DHT22;10583;49.084;8.646;2023-02-25T09:33:16;6.30;99.90
20845;DHT22;10583;49.084;8.646;2023-02-25T09:35:43;6.50;99.90
20845;DHT22;10583;49.084;8.646;2023-02-25T09:38:10;6.60;99.90
20845;DHT22;10583;49.084;8.646;2023-02-25T09:40:38;6.60;99.90
20845;DHT22;10583;49.084;8.646;2023-02-25T09:43:15;6.60;99.90
20845;DHT22;10583;49.084;8.646;2023-02-25T09:45:45;6.70;99.90
20845;DHT22;10583;49.084;8.646;2023-02-25T09:48:17;6.80;99.90
20845;DHT22;10583;49.084;8.646;2023-02-25T09:50:48;6.80;99.90
20845;DHT22;10583;49.084;8.646;2023-02-25T09:53:19;6.90;99.90
20845;DHT22;10583;49.084;8.646;2023-02-25T09:55:49;6.90;99.90
20845;DHT22;10583;49.084;8.646;2023-02-25T09:58:23;6.80;99.90
20845;DHT22;10583;49.084;8.646;2023-02-25T10:00:58;6.70;99.90
20845;DHT22;10583;49.084;8.646;2023-02-25T10:03:44;6.70;99.90
20845;DHT22;10583;49.084;8.646;2023-02-25T10:06:19;6.60;99.90
20845;DHT22;10583;49.084;8.646;2023-02-25T10:08:55;6.70;99.90
20845;DHT22;10583;49.084;8.646;2023-02-25T10:11:37;6.70;99.90
20845;DHT22;10583;49.084;8.646;2023-02-25T10:14:14;6.80;99.90
20845;DHT22;10583;49.084;8.646;2023-02-25T10:16:53;6.70;99.90
20845;DHT22;10583;49.084;8.646;2023-02-25T10:19:38;6.80;99.90
20845;DHT22;10583;49.084;8.646;2023-02-25T10:22:25;6.70;99.90
20845;DHT22;10583;49.084;8.646;2023-02-25T10:24:56;6.70;99.90
20845;DHT22;10583;49.084;8.646;2023-02-25T10:27:27;6.60;99.90
20845;DHT22;10583;49.084;8.646;2023-02-25T10:29:58;6.70;99.90
20845;DHT22;10583;49.084;8.646;2023-02-25T10:32:27;6.80;99.90
20845;DHT22;10583;49.084;8.646;2023-02-25T10:34:58;6.80;99.90
20845;DHT22;10583;49.084;8.646;2023-02-25T10:37:29;6.80;99.90
20845;DHT22;10583;49.084;8.646;2023-02-25T10:39:59;6.80;99.90
20845;DHT22;10583;49.084;8.646;2023-02-25T10:42:27;6.70;99.90
20845;DHT22;10583;49.084;8.646;2023-02-25T10:44:54;6.60;99.90
20845;DHT22;10583;49.084;8.646;2023-02-25T10:47:29;6.60;99.90
20845;DHT22;10583;49.084;8.646;2023-02-25T10:50:20;6.50;99.90
20845;DHT22;10583;49.084;8.646;2023-02-25T10:52:52;6.60;99.90
20845;DHT22;10583;49.084;8.646;2023-02-25T10:55:29;6.70;99.90
20845;DHT22;10583;49.084;8.646;2023-02-25T10:57:59;6.60;99.90
20845;DHT22;10583;49.084;8.646;2023-02-25T11:00:27;6.60;99.90
20845;DHT22;10583;49.084;8.646;2023-02-25T11:02:55;6.60;99.90
20845;DHT22;10583;49.084;8.646;2023-02-25T11:05:32;6.50;99.90
20845;DHT22;10583;49.084;8.646;2023-02-25T11:08:01;6.40;99.90
20845;DHT22;10583;49.084;8.646;2023-02-25T11:10:31;6.40;99.90
20845;DHT22;10583;49.084;8.646;2023-02-25T11:12:58;6.30;99.90
20845;DHT22;10583;49.084;8.646;2023-02-25T11:15:30;6.20;99.90
20845;DHT22;10583;49.084;8.646;2023-02-25T11:18:03;6.10;99.90
20845;DHT22;10583;49.084;8.646;2023-02-25T11:20:33;6.10;99.90
20845;DHT22;10583;49.084;8.646;2023-02-25T11:23:01;6.20;99.90
20845;DHT22;10583;49.084;8.646;2023-02-25T11:25:36;6.20;99.90
20845;DHT22;10583;49.084;8.646;2023-02-25T11:28:05;6.20;99.90
20845;DHT22;10583;49.084;8.646;2023-02-25T11:30:35;6.10;99.90
20845;DHT22;10583;49.084;8.646;2023-02-25T11:33:07;6.10;99.90
20845;DHT22;10583;49.084;8.646;2023-02-25T11:35:39;6.00;99.90
20845;DHT22;10583;49.084;8.646;2023-02-25T11:38:14;5.80;99.90
20845;DHT22;10583;49.084;8.646;2023-02-25T11:40:42;5.60;99.90
20845;DHT22;10583;49.084;8.646;2023-02-25T11:43:15;5.50;99.90
20845;DHT22;10583;49.084;8.646;2023-02-25T11:45:53;5.60;99.90
20845;DHT22;10583;49.084;8.646;2023-02-25T11:48:24;5.60;99.90
20845;DHT22;10583;49.084;8.646;2023-02-25T11:51:04;5.70;99.90
20845;DHT22;10583;49.084;8.646;2023-02-25T11:53:47;5.80;99.90
20845;DHT22;10583;49.084;8.646;2023-02-25T11:56:21;5.90;99.90
20845;DHT22;10583;49.084;8.646;2023-02-25T11:58:58;6.00;99.90
20845;DHT22;10583;49.084;8.646;2023-02-25T12:01:38;5.90;99.90
20845;DHT22;10583;49.084;8.646;2023-02-25T12:04:22;5.80;99.90
20845;DHT22;10583;49.084;8.646;2023-02-25T12:07:24;5.50;99.90
20845;DHT22;10583;49.084;8.646;2023-02-25T12:13:23;5.20;99.90
20845;DHT22;10583;49.084;8.646;2023-02-25T12:16:22;5.30;99.90
20845;DHT22;10583;49.084;8.646;2023-02-25T12:19:33;5.40;99.90
20845;DHT22;10583;49.084;8.646;2023-02-25T12:25:16;6.00;99.90
20845;DHT22;10583;49.084;8.646;2023-02-25T12:28:02;6.20;99.90
20845;DHT22;10583;49.084;8.646;2023-02-25T12:30:50;6.40;99.90
20845;DHT22;10583;49.084;8.646;2023-02-25T12:33:38;6.40;99.90
20845;DHT22;10583;49.084;8.646;2023-02-25T12:36:25;6.40;99.90
20845;DHT22;10583;49.084;8.646;2023-02-25T12:39:13;6.60;99.90
20845;DHT22;10583;49.084;8.646;2023-02-25T12:41:45;6.80;99.90
20845;DHT22;10583;49.084;8.646;2023-02-25T12:44:40;6.90;99.90
20845;DHT22;10583;49.084;8.646;2023-02-25T12:47:22;7.10;99.90
20845;DHT22;10583;49.084;8.646;2023-02-25T12:50:14;7.30;99.90
20845;DHT22;10583;49.084;8.646;2023-02-25T12:53:05;7.20;99.90
20845;DHT22;10583;49.084;8.646;2023-02-25T12:55:48;7.10;99.90
20845;DHT22;10583;49.084;8.646;2023-02-25T12:58:31;7.20;99.90
20845;DHT22;10583;49.084;8.646;2023-02-25T13:01:16;7.20;99.90
20845;DHT22;10583;49.084;8.646;2023-02-25T13:04:12;7.30;99.90
20845;DHT22;10583;49.084;8.646;2023-02-25T13:07:01;7.70;99.90
20845;DHT22;10583;49.084;8.646;2023-02-25T13:12:52;8.20;99.90
20845;DHT22;10583;49.084;8.646;2023-02-25T13:15:29;8.00;99.90
20845;DHT22;10583;49.084;8.646;2023-02-25T13:18:10;8.30;99.90
20845;DHT22;10583;49.084;8.646;2023-02-25T13:20:57;8.90;99.90
20845;DHT22;10583;49.084;8.646;2023-02-25T13:23:57;9.20;99.90
20845;DHT22;10583;49.084;8.646;2023-02-25T13:26:53;9.00;99.90
20845;DHT22;10583;49.084;8.646;2023-02-25T13:29:56;8.60;99.90
20845;DHT22;10583;49.084;8.646;2023-02-25T13:32:33;8.50;99.90
20845;DHT22;10583;49.084;8.646;2023-02-25T13:35:23;9.00;99.90
20845;DHT22;10583;49.084;8.646;2023-02-25T13:38:00;9.50;99.90
20845;DHT22;10583;49.084;8.646;2023-02-25T13:40:38;9.30;99.90
20845;DHT22;10583;49.084;8.646;2023-02-25T13:43:28;9.40;99.90
20845;DHT22;10583;49.084;8.646;2023-02-25T13:46:04;9.60;99.90
20845;DHT22;10583;49.084;8.646;2023-02-25T13:49:17;9.70;99.90
20845;DHT22;10583;49.084;8.646;2023-02-25T13:52:01;9.50;99.90
20845;DHT22;10583;49.084;8.646;2023-02-25T13:54:47;9.30;99.90
20845;DHT22;10583;49.084;8.646;2023-02-25T13:57:29;9.20;99.90
20845;DHT22;10583;49.084;8.646;2023-02-25T14:00:25;9.10;99.90
20845;DHT22;10583;49.084;8.646;2023-02-25T14:03:17;9.10;99.90
20845;DHT22;10583;49.084;8.646;2023-02-25T14:06:02;8.90;99.90
20845;DHT22;10583;49.084;8.646;2023-02-25T14:09:01;8.70;99.90
20845;DHT22;10583;49.084;8.646;2023-02-25T14:11:41;8.70;99.90
20845;DHT22;10583;49.084;8.646;2023-02-25T14:14:27;8.50;99.90
20845;DHT22;10583;49.084;8.646;2023-02-25T14:17:11;8.30;99.90
20845;DHT22;10583;49.084;8.646;2023-02-25T14:19:50;8.00;99.90
20845;DHT22;10583;49.084;8.646;2023-02-25T14:22:33;8.00;99.90
20845;DHT22;10583;49.084;8.646;2023-02-25T14:25:13;7.90;99.90
20845;DHT22;10583;49.084;8.646;2023-02-25T14:27:49;7.70;99.90
20845;DHT22;10583;49.084;8.646;2023-02-25T14:30:24;7.60;99.90
20845;DHT22;10583;49.084;8.646;2023-02-25T14:33:04;7.40;99.90
20845;DHT22;10583;49.084;8.646;2023-02-25T14:35:50;7.40;99.90
20845;DHT22;10583;49.084;8.646;2023-02-25T14:38:25;7.40;99.90
20845;DHT22;10583;49.084;8.646;2023-02-25T14:41:00;7.70;99.90
20845;DHT22;10583;49.084;8.646;2023-02-25T14:43:31;7.80;99.90
20845;DHT22;10583;49.084;8.646;2023-02-25T14:46:09;7.90;99.90
20845;DHT22;10583;49.084;8.646;2023-02-25T14:48:43;8.00;99.90
20845;DHT22;10583;49.084;8.646;2023-02-25T14:54:38;8.00;99.90
20845;DHT22;10583;49.084;8.646;2023-02-25T14:57:40;8.10;99.90
20845;DHT22;10583;49.084;8.646;2023-02-25T15:00:28;8.20;99.90
20845;DHT22;10583;49.084;8.646;2023-02-25T15:03:16;8.10;99.90
20845;DHT22;10583;49.084;8.646;2023-02-25T15:05:59;7.90;99.90
20845;DHT22;10583;49.084;8.646;2023-02-25T15:08:48;7.70;99.90
20845;DHT22;10583;49.084;8.646;2023-02-25T15:11:41;7.40;99.90
20845;DHT22;10583;49.084;8.646;2023-02-25T15:14:47;7.30;99.90
20845;DHT22;10583;49.084;8.646;2023-02-25T15:20:32;7.00;99.90
20845;DHT22;10583;49.084;8.646;2023-02-25T15:23:04;7.00;99.90
20845;DHT22;10583;49.084;8.646;2023-02-25T15:25:45;7.00;99.90
20845;DHT22;10583;49.084;8.646;2023-02-25T15:28:32;6.90;99.90
20845;DHT22;10583;49.084;8.646;2023-02-25T15:31:23;6.90;99.90
20845;DHT22;10583;49.084;8.646;2023-02-25T15:33:53;6.90;99.90
20845;DHT22;10583;49.084;8.646;2023-02-25T15:36:26;6.70;99.90
20845;DHT22;10583;49.084;8.646;2023-02-25T15:39:06;6.60;99.90
20845;DHT22;10583;49.084;8.646;2023-02-25T15:41:44;6.60;99.90
20845;DHT22;10583;49.084;8.646;2023-02-25T15:44:37;6.50;99.90
20845;DHT22;10583;49.084;8.646;2023-02-25T15:49:58;6.40;99.90
20845;DHT22;10583;49.084;8.646;2023-02-25T15:52:51;6.50;99.90
20845;DHT22;10583;49.084;8.646;2023-02-25T15:55:36;6.70;99.90
20845;DHT22;10583;49.084;8.646;2023-02-25T16:01:22;6.60;99.90
20845;DHT22;10583;49.084;8.646;2023-02-25T16:03:49;6.50;99.90
20845;DHT22;10583;49.084;8.646;2023-02-25T16:06:18;6.40;99.90
20845;DHT22;10583;49.084;8.646;2023-02-25T16:08:50;6.40;99.90
20845;DHT22;10583;49.084;8.646;2023-02-25T16:11:23;6.40;99.90
20845;DHT22;10583;49.084;8.646;2023-02-25T16:13:52;6.30;99.90
20845;DHT22;10583;49.084;8.646;2023-02-25T16:16:21;6.30;99.90
20845;DHT22;10583;49.084;8.646;2023-02-25T16:18:49;6.20;99.90
20845;DHT22;10583;49.084;8.646;2023-02-25T16:21:21;6.20;99.90
20845;DHT22;10583;49.084;8.646;2023-02-25T16:23:50;6.20;99.90
20845;DHT22;10583;49.084;8.646;2023-02-25T16:26:29;6.20;99.90
20845;DHT22;10583;49.084;8.646;2023-02-25T16:29:06;6.20;99.90
20845;DHT22;10583;49.084;8.646;2023-02-25T16:31:43;6.20;99.90
20845;DHT22;10583;49.084;8.646;2023-02-25T16:34:18;6.10;99.90
20845;DHT22;10583;49.084;8.646;2023-02-25T16:36:51;5.90;99.90
20845;DHT22;10583;49.084;8.646;2023-02-25T16:39:21;5.80;99.90
20845;DHT22;10583;49.084;8.646;2023-02-25T16:41:51;5.80;99.90